Aviation Digital Data Service (ADDS)

Output produced by METARs form (0139 UTC 31 May 2020)
found at http://aviationweather.gov/metar/data/
 
METAR text: KCVH 310135Z AUTO 27008G15KT 10SM OVC037 17/13 A2995 RMK A01
Conditions at: KCVH (HOLLISTER MUNI , CA, US) observed 0135 UTC 31 May 2020
Temperature: 17.0°C (63°F)
Dewpoint: 13.0°C (55°F) [RH = 77%]
Pressure (altimeter): 29.95 inches Hg (1014.3 mb)
Winds: from the W (270 degrees) at 9 MPH (8 knots; 4.1 m/s)
gusting to 17 MPH (15 knots; 7.7 m/s)
Visibility: 10 or more miles (16+ km)
Ceiling: 3700 feet AGL
Clouds: overcast cloud deck at 3700 feet AGL
Weather: automated observation with no human augmentation;
there may or may not be significant weather present at this time